Monroe, MI

1:56 PM EDT on July 23, 2017 (GMT -0400)
Custer

Weather History for KTTF - December, 2013

Change the Weather History Date:

Sunday, December 29, 2013

  Actual Average Record
Temperature  
Mean Temperature 34 °F -  
Max Temperature 42 °F 33 °F 64 °F (1984)
Min Temperature 26 °F 19 °F -2 °F (1961)
Degree Days  
Heating Degree Days 31    
Moisture  
Dew Point 28 °F    
Average Humidity 71    
Maximum Humidity 93    
Minimum Humidity 61    
Precipitation  
Precipitation 0.00 in - - ()
Sea Level Pressure  
Sea Level Pressure 29.80 in    
Wind  
Wind Speed 8 mph (WSW)    
Max Wind Speed 17 mph    
Max Gust Speed 28 mph    
Visibility 10 miles    
Events Snow    
Averages and records for this station are not official NWS values.
T = Trace of Precipitation, MM = Missing Value Source: NWS Daily Summary

Daily Weather History Graph

Daily Weather History Graph

Search for Another Location

Airport or City:

Trip Planner

Search our weather history database for the weather conditions in past years. The results will help you decide how hot, cold, wet, or windy it might be!

Date:

Astronomy

Dec. 29, 2013 Rise Set
Actual Time 8:01 AM EST 5:10 PM EST
Civil Twilight 7:29 AM EST 5:42 PM EST
Nautical Twilight 6:54 AM EST 6:17 PM EST
Astronomical Twilight 6:20 AM EST 6:51 PM EST
Moon 4:42 AM EST (12/29) 2:49 PM EST (12/29)
Length of Visible Light 10h 12m
Length of Day
9h 09m
Waning Crescent, 11% of the Moon is Illuminated
Dec 29
Waning Crescent
Jan 1
New
Jan 7
First Quarter
Jan 15
Full
Jan 24
Last Quarter

Hourly Weather History & Observations

Time (EST) Temp. Windchill Dew Point Humidity Pressure Visibility Wind Dir Wind Speed Gust Speed Precip Events Conditions
12:14 AM 39.2 °F 35.0 °F 30.2 °F 70% 29.89 in 10.0 mi SSW 5.8 mph - N/A   Clear
12:34 AM 39.2 °F 34.2 °F 30.2 °F 70% 29.89 in 10.0 mi SSW 6.9 mph - N/A   Clear
12:54 AM 39.2 °F 33.6 °F 30.2 °F 70% 29.88 in 10.0 mi SSW 8.1 mph - N/A   Clear
1:14 AM 39.2 °F 33.6 °F 28.4 °F 65% 29.88 in 10.0 mi SSW 8.1 mph - N/A   Clear
1:35 AM 39.2 °F 34.2 °F 28.4 °F 65% 29.88 in 10.0 mi SSW 6.9 mph - N/A   Clear
1:55 AM 39.2 °F 34.2 °F 28.4 °F 65% 29.88 in 10.0 mi SSW 6.9 mph - N/A   Clear
2:15 AM 39.2 °F 33.6 °F 28.4 °F 65% 29.88 in 10.0 mi SSW 8.1 mph - N/A   Clear
2:35 AM 39.2 °F 33.0 °F 28.4 °F 65% 29.89 in 10.0 mi SSW 9.2 mph - N/A   Clear
2:55 AM 39.2 °F 35.0 °F 28.4 °F 65% 29.88 in 10.0 mi SSW 5.8 mph - N/A   Clear
3:15 AM 39.2 °F 35.0 °F 28.4 °F 65% 29.87 in 10.0 mi SW 5.8 mph - N/A   Clear
3:35 AM 37.4 °F 33.8 °F 28.4 °F 70% 29.86 in 10.0 mi South 4.6 mph - N/A   Clear
3:55 AM 37.4 °F 33.8 °F 28.4 °F 70% 29.84 in 10.0 mi SSW 4.6 mph - N/A   Clear
4:16 AM 37.4 °F 32.8 °F 28.4 °F 70% 29.84 in 10.0 mi SSW 5.8 mph - N/A   Clear
4:36 AM 37.4 °F 32.1 °F 28.4 °F 70% 29.83 in 10.0 mi SSW 6.9 mph - N/A   Clear
4:56 AM 39.2 °F 33.6 °F 28.4 °F 65% 29.83 in 10.0 mi SW 8.1 mph - N/A   Clear
5:16 AM 39.2 °F 33.0 °F 26.6 °F 61% 29.82 in 10.0 mi SSW 9.2 mph 17.3 mph N/A   Clear
5:36 AM 39.2 °F 33.0 °F 26.6 °F 61% 29.81 in 10.0 mi SSW 9.2 mph - N/A   Clear
5:56 AM 39.2 °F 33.6 °F 26.6 °F 61% 29.79 in 10.0 mi SSW 8.1 mph - N/A   Clear
6:16 AM 37.4 °F 32.8 °F 28.4 °F 70% 29.79 in 10.0 mi SSW 5.8 mph - N/A   Clear
6:36 AM 37.4 °F 30.8 °F 28.4 °F 70% 29.78 in 10.0 mi SSW 9.2 mph - N/A   Clear
6:56 AM 39.2 °F 35.9 °F 28.4 °F 65% 29.77 in 10.0 mi SSW 4.6 mph - N/A   Clear
7:16 AM 37.4 °F - 28.4 °F 70% 29.78 in 10.0 mi Calm Calm - N/A   Clear
7:36 AM 37.4 °F 33.8 °F 28.4 °F 70% 29.77 in 10.0 mi South 4.6 mph - N/A   Clear
7:56 AM 37.4 °F 32.8 °F 28.4 °F 70% 29.77 in 10.0 mi SSW 5.8 mph - N/A   Clear
8:17 AM 37.4 °F 32.8 °F 28.4 °F 70% 29.78 in 10.0 mi SSW 5.8 mph - N/A   Clear
8:37 AM 37.4 °F 31.4 °F 28.4 °F 70% 29.76 in 10.0 mi South 8.1 mph - N/A   Clear
8:52 AM 37.4 °F 31.4 °F 28.4 °F 70% 29.75 in 10.0 mi SSW 8.1 mph - N/A   Clear
9:12 AM 37.4 °F 32.1 °F 28.4 °F 70% 29.74 in 10.0 mi SSW 6.9 mph - N/A   Clear
9:32 AM 37.4 °F 32.8 °F 28.4 °F 70% 29.75 in 10.0 mi SW 5.8 mph - N/A   Clear
9:52 AM 37.4 °F 33.8 °F 28.4 °F 70% 29.74 in 10.0 mi SSW 4.6 mph - N/A   Clear
10:12 AM 37.4 °F 33.8 °F 28.4 °F 70% 29.75 in 10.0 mi SSW 4.6 mph - N/A   Clear
10:32 AM 39.2 °F 34.2 °F 28.4 °F 65% 29.75 in 10.0 mi SW 6.9 mph - N/A   Clear
10:52 AM 39.2 °F 33.0 °F 28.4 °F 65% 29.75 in 10.0 mi WSW 9.2 mph - N/A   Clear
11:13 AM 39.2 °F 32.5 °F 28.4 °F 65% 29.73 in 10.0 mi WSW 10.4 mph - N/A   Clear
11:33 AM 39.2 °F 32.5 °F 28.4 °F 65% 29.73 in 10.0 mi WSW 10.4 mph - N/A   Clear
11:53 AM 39.2 °F 32.5 °F 28.4 °F 65% 29.71 in 10.0 mi WSW 10.4 mph - N/A   Clear
12:13 PM 39.2 °F 32.0 °F 30.2 °F 70% 29.71 in 10.0 mi WSW 11.5 mph - N/A   Clear
12:33 PM 39.2 °F 33.0 °F 30.2 °F 70% 29.70 in 10.0 mi West 9.2 mph - N/A   Clear
12:53 PM 39.2 °F 32.0 °F 30.2 °F 70% 29.69 in 10.0 mi West 11.5 mph - N/A   Clear
1:13 PM 41.0 °F 34.7 °F 30.2 °F 65% 29.69 in 10.0 mi WSW 10.4 mph - N/A   Clear
1:33 PM 42.8 °F 37.0 °F 30.2 °F 61% 29.69 in 10.0 mi West 10.4 mph - N/A   Clear
1:53 PM 42.8 °F 37.0 °F 30.2 °F 61% 29.68 in 10.0 mi West 10.4 mph - N/A   Clear
2:13 PM 42.8 °F 38.0 °F 32.0 °F 66% 29.68 in 10.0 mi West 8.1 mph - N/A   Clear
2:34 PM 42.8 °F 36.2 °F 30.2 °F 61% 29.69 in 10.0 mi West 12.7 mph - N/A   Clear
2:54 PM 42.8 °F 37.0 °F 32.0 °F 66% 29.69 in 10.0 mi West 10.4 mph - N/A   Clear
3:14 PM 42.8 °F 37.5 °F 32.0 °F 66% 29.69 in 10.0 mi West 9.2 mph - N/A   Mostly Cloudy
3:34 PM 42.8 °F 38.0 °F 32.0 °F 66% 29.70 in 10.0 mi WNW 8.1 mph - N/A   Overcast
3:54 PM 41.0 °F 34.7 °F 30.2 °F 65% 29.70 in 10.0 mi WNW 10.4 mph - N/A   Overcast
4:14 PM 41.0 °F 35.2 °F 30.2 °F 65% 29.71 in 10.0 mi WNW 9.2 mph - N/A   Overcast
4:34 PM 39.2 °F 33.0 °F 30.2 °F 70% 29.72 in 10.0 mi West 9.2 mph - N/A   Overcast
4:54 PM 39.2 °F 33.0 °F 30.2 °F 70% 29.72 in 10.0 mi West 9.2 mph - N/A   Overcast
5:14 PM 39.2 °F 33.0 °F 30.2 °F 70% 29.73 in 10.0 mi West 9.2 mph - N/A   Overcast
5:34 PM 39.2 °F 33.6 °F 32.0 °F 75% 29.74 in 10.0 mi West 8.1 mph - N/A   Overcast
5:55 PM 37.4 °F 29.3 °F 33.8 °F 87% 29.76 in 4.0 mi WNW 12.7 mph 17.3 mph N/A   Haze
6:15 PM 33.8 °F 23.9 °F 30.2 °F 87% 29.79 in 4.0 mi NW 15.0 mph 27.6 mph N/A   Light Drizzle
6:35 PM 32.0 °F 20.8 °F 28.4 °F 87% 29.80 in 4.0 mi NW 17.3 mph 21.9 mph N/A   Overcast
6:55 PM 30.2 °F 19.3 °F 28.4 °F 93% 29.82 in 4.0 mi NW 15.0 mph 19.6 mph N/A   Overcast
7:15 PM 30.2 °F 18.5 °F 28.4 °F 93% 29.84 in 7.0 mi NW 17.3 mph - N/A   Overcast
7:35 PM 30.2 °F 19.8 °F 26.6 °F 86% 29.85 in 3.0 mi NW 13.8 mph 20.7 mph N/A Snow Light Snow
7:55 PM 28.4 °F 16.2 °F 24.8 °F 86% 29.87 in 10.0 mi NW 17.3 mph 21.9 mph N/A   Overcast
8:15 PM 28.4 °F 17.5 °F 24.8 °F 86% 29.88 in 10.0 mi NW 13.8 mph 21.9 mph N/A   Overcast
8:35 PM 28.4 °F 16.6 °F 23.0 °F 80% 29.89 in 10.0 mi NNW 16.1 mph 24.2 mph N/A   Overcast
8:56 PM 28.4 °F 16.6 °F 23.0 °F 80% 29.90 in 10.0 mi NW 16.1 mph 20.7 mph N/A   Overcast
9:16 PM 26.6 °F 14.7 °F 21.2 °F 80% 29.91 in 10.0 mi NW 15.0 mph - N/A   Overcast
9:36 PM 26.6 °F 14.7 °F 21.2 °F 80% 29.92 in 10.0 mi NW 15.0 mph - N/A   Overcast
9:56 PM 26.6 °F 15.2 °F 21.2 °F 80% 29.93 in 10.0 mi NW 13.8 mph 19.6 mph N/A   Overcast
10:16 PM 26.6 °F 14.3 °F 21.2 °F 80% 29.94 in 10.0 mi NNW 16.1 mph - N/A   Overcast
10:36 PM 26.6 °F 15.7 °F 19.4 °F 74% 29.94 in 10.0 mi NW 12.7 mph - N/A   Overcast
10:56 PM 26.6 °F 15.2 °F 19.4 °F 74% 29.95 in 10.0 mi NNW 13.8 mph - N/A   Overcast
11:16 PM 26.6 °F 17.5 °F 19.4 °F 74% 29.96 in 10.0 mi NW 9.2 mph - N/A   Overcast
11:36 PM 26.6 °F 15.2 °F 19.4 °F 74% 29.97 in 10.0 mi NW 13.8 mph 18.4 mph N/A   Overcast
11:56 PM 26.6 °F 15.7 °F 19.4 °F 74% 29.97 in 10.0 mi NW 12.7 mph 20.7 mph N/A   Overcast